EDT,Max TemperatureF,Mean TemperatureF,Min TemperatureF,Max Dew PointF,MeanDew PointF,Min DewpointF,Max Humidity, Mean Humidity, Min Humidity, Max Sea Level PressureIn, Mean Sea Level PressureIn, Min Sea Level PressureIn, Max VisibilityMiles, Mean VisibilityMiles, Min VisibilityMiles, Max Wind SpeedMPH, Mean Wind SpeedMPH, Max Gust SpeedMPH,PrecipitationIn, CloudCover, Events, WindDirDegrees
2013-4-1,42,34,25,40,28,9,93,63,32,29.98,29.75,29.63,10,7,1,25,14,35,T,6,Rain-Snow,273
2013-4-2,33,27,20,17,12,7,77,57,36,30.16,30.08,29.98,10,10,9,25,12,31,T,5,,280
2013-4-3,34,27,19,18,12,8,77,58,39,30.43,30.27,30.15,10,9,2,23,9,35,T,3,Snow,298
2013-4-4,51,33,14,14,8,1,80,47,14,30.38,30.21,29.98,10,10,10,13,4,21,0.00,0,,155
2013-4-5,50,39,27,22,16,10,69,48,26,30.14,29.98,29.91,10,10,10,23,10,32,0.00,1,,297
2013-4-6,51,37,22,20,14,6,81,50,18,30.31,30.20,30.09,10,10,10,13,7,20,0.00,1,,128
2013-4-7,68,56,43,41,30,17,66,50,33,30.06,29.93,29.86,10,10,10,28,12,38,0.00,4,,208
2013-4-8,71,54,37,48,40,36,92,63,33,30.06,29.98,29.90,10,8,2,25,8,33,0.01,4,,217
2013-4-9,76,64,51,52,47,40,83,59,35,30.08,29.98,29.88,10,10,10,23,10,29,0.02,3,Rain-Thunderstorm,261
2013-4-10,75,66,57,61,55,50,93,72,51,29.94,29.88,29.79,10,8,1,32,9,44,0.51,7,Rain-Thunderstorm,253
2013-4-11,58,51,43,55,51,41,96,90,83,29.88,29.84,29.73,10,5,0,18,10,26,0.17,8,Fog-Rain,83
2013-4-12,62,51,40,55,46,29,93,77,60,29.83,29.62,29.54,10,6,2,29,15,38,0.46,8,Rain,165
2013-4-13,45,41,37,33,31,30,85,72,58,29.97,29.87,29.81,10,10,10,25,13,36,T,8,,249
2013-4-14,52,41,29,31,28,24,78,60,41,30.14,30.08,29.95,10,10,10,18,8,25,0.00,4,,269
2013-4-15,67,57,47,45,39,30,66,54,42,30.15,30.10,30.05,10,10,10,20,11,28,0.00,6,,141
2013-4-16,73,63,53,55,51,46,93,73,53,30.19,30.12,30.04,10,10,3,22,9,28,0.08,6,Rain-Thunderstorm,203
2013-4-17,71,60,48,50,39,29,89,57,24,30.26,30.19,30.15,10,10,8,14,5,18,0.00,3,,33
2013-4-18,73,65,57,57,52,37,78,63,47,30.14,29.97,29.81,10,10,8,23,13,31,0.00,1,,142
2013-4-19,68,54,40,58,47,28,73,65,57,29.79,29.65,29.47,10,9,2,33,14,45,0.15,6,Rain,215
2013-4-20,44,37,30,30,24,17,76,60,44,30.40,30.03,29.79,10,10,6,28,13,37,T,6,Snow,272
2013-4-21,52,39,26,22,18,14,75,49,22,30.61,30.52,30.42,10,10,10,14,5,23,0.00,0,,46
2013-4-22,57,46,34,27,22,17,56,39,22,30.51,30.43,30.34,10,10,10,20,9,28,0.00,0,,117
2013-4-23,66,50,33,36,30,25,75,49,22,30.33,30.17,30.01,10,10,10,13,8,18,0.00,0,,131
2013-4-24,63,49,35,54,44,30,92,77,61,30.10,29.87,29.72,10,8,2,35,12,41,0.43,7,Rain-Snow-Thunderstorm,228
2013-4-25,55,45,34,37,30,24,92,61,30,30.34,30.20,30.10,10,10,8,26,9,38,0.02,6,,254
2013-4-26,58,45,32,35,27,19,92,58,24,30.48,30.41,30.35,10,8,2,12,2,22,0.00,0,,279
2013-4-27,70,52,33,33,26,21,69,45,20,30.40,30.32,30.20,10,10,10,12,5,16,0.00,0,,115
2013-4-28,61,55,48,46,42,34,86,65,43,30.19,30.09,30.02,10,8,2,21,11,30,0.23,5,Rain,133
2013-4-29,57,53,49,51,47,43,93,83,72,30.07,30.02,29.98,10,6,2,16,9,22,0.24,8,Rain,129
2013-4-30,64,59,53,51,49,47,93,77,60,30.25,30.16,30.07,10,10,5,16,9,24,0.01,8,Rain,130